Time;durP1;ratioP1;P1;durP2;ratioP2;P2;SDS_P1;SDS_P2;PMS_P1;PMS_P2;Temp;Humidity;BMP_temperature;BMP_pressure;BME280_temperature;BME280_humidity;BME280_pressure;Samples;Min_cycle;Max_cycle;Signal;HPM_P1;HPM_P2
2023/01/15 00:02:07;;;;;;;0.50;0.50;;;;;;;-145.69;100.00;52485.97;5073977;28;20202;-79
2023/01/15 00:04:34;;;;;;;1.60;0.50;;;;;;;-145.69;100.00;52491.91;5073911;28;20195;-79
2023/01/15 00:07:00;;;;;;;0.50;0.50;;;;;;;-145.69;100.00;52503.81;5074054;28;20260;-80
2023/01/15 00:09:26;;;;;;;1.23;0.40;;;;;;;-145.69;100.00;52501.81;5073894;28;20195;-80
2023/01/15 00:11:53;;;;;;;1.40;0.40;;;;;;;-145.69;100.00;52470.13;5074080;28;20199;-80
2023/01/15 00:14:20;;;;;;;0.50;0.50;;;;;;;-145.69;100.00;52495.88;5074076;28;20203;-80
2023/01/15 00:16:50;;;;;;;1.17;0.60;;;;;;;-145.69;100.00;52507.75;5073063;28;20214;-80
2023/01/15 00:19:18;;;;;;;1.17;0.60;;;;;;;-145.69;100.00;52491.91;5073596;28;20226;-80
2023/01/15 00:21:45;;;;;;;0.90;0.50;;;;;;;-145.69;100.00;52519.63;5073634;28;20194;-80
2023/01/15 00:29:39;;;;;;;0.40;0.40;;;;;;;-145.69;100.00;52503.81;5073826;28;20193;-80
2023/01/15 00:32:08;;;;;;;1.03;0.43;;;;;;;-145.69;100.00;52515.69;5073532;28;20202;-79
2023/01/15 00:34:38;;;;;;;5.00;0.40;;;;;;;-145.69;100.00;52495.88;5073767;28;20195;-80
2023/01/15 00:37:04;;;;;;;0.53;0.50;;;;;;;-145.69;100.00;52507.75;5072701;28;20190;-80
2023/01/15 00:39:32;;;;;;;0.40;0.40;;;;;;;-145.69;100.00;52507.75;5072718;28;20585;-79
2023/01/15 00:41:58;;;;;;;0.93;0.40;;;;;;;-145.69;100.00;52525.59;5073376;28;20198;-79
2023/01/15 00:44:25;;;;;;;0.57;0.43;;;;;;;-145.69;100.00;52495.88;5072855;28;20231;-80
2023/01/15 00:46:51;;;;;;;0.47;0.47;;;;;;;-145.69;100.00;52493.91;5073175;28;20585;-80
2023/01/15 00:49:18;;;;;;;0.60;0.50;;;;;;;-145.69;100.00;52487.97;5072834;28;20199;-80
2023/01/15 00:51:47;;;;;;;5.00;0.60;;;;;;;-145.69;100.00;52491.91;5073010;28;20232;-80
2023/01/15 00:54:15;;;;;;;0.77;0.50;;;;;;;-145.69;100.00;52487.97;5073130;28;20203;-80
2023/01/15 00:56:42;;;;;;;0.70;0.50;;;;;;;-145.69;100.00;52476.06;5072586;28;20195;-80
2023/01/15 00:59:08;;;;;;;0.60;0.60;;;;;;;-145.69;100.00;52515.69;5072992;28;20229;-80
2023/01/15 01:01:35;;;;;;;0.77;0.50;;;;;;;-145.69;100.00;52505.78;5072869;28;20681;-80
2023/01/15 01:04:02;;;;;;;0.50;0.50;;;;;;;-145.69;100.00;52499.84;5072753;28;20565;-80
2023/01/15 01:06:29;;;;;;;0.40;0.40;;;;;;;-145.69;100.00;52511.72;5072341;28;20191;-80
2023/01/15 01:08:57;;;;;;;1.03;0.60;;;;;;;-145.69;100.00;52525.59;5072559;28;20213;-80
2023/01/15 01:11:27;;;;;;;0.50;0.50;;;;;;;-145.69;100.00;52497.84;5071470;28;20285;-80
2023/01/15 01:13:54;;;;;;;0.67;0.40;;;;;;;-145.69;100.00;52493.91;5072520;28;20611;-80
2023/01/15 01:16:24;;;;;;;0.50;0.50;;;;;;;-145.69;100.00;52523.59;5072491;28;20568;-80
2023/01/15 01:18:51;;;;;;;0.50;0.50;;;;;;;-145.69;100.00;52503.81;5072466;28;20195;-80
2023/01/15 01:21:17;;;;;;;0.40;0.40;;;;;;;-145.69;100.00;52537.47;5073302;28;20203;-79
2023/01/15 01:23:44;;;;;;;0.40;0.40;;;;;;;-145.69;100.00;52499.84;5073033;28;20209;-79
2023/01/15 01:26:12;;;;;;;0.73;0.50;;;;;;;-145.69;100.00;52493.91;5072663;28;20187;-78
2023/01/15 01:28:39;;;;;;;0.70;0.60;;;;;;;-145.69;100.00;52487.97;5072882;28;20199;-78
2023/01/15 01:31:06;;;;;;;0.40;0.40;;;;;;;-145.69;100.00;52480.03;5072519;28;20194;-78
2023/01/15 01:33:33;;;;;;;0.40;0.40;;;;;;;-145.69;100.00;52513.69;5072565;28;20225;-78
2023/01/15 01:36:02;;;;;;;0.50;0.40;;;;;;;-145.69;100.00;52507.75;5072280;28;20199;-79
2023/01/15 01:38:28;;;;;;;1.10;0.50;;;;;;;-145.69;100.00;52543.41;5072924;28;20211;-79
2023/01/15 01:40:55;;;;;;;1.50;0.60;;;;;;;-145.69;100.00;52545.38;5072730;28;20241;-78
2023/01/15 01:43:25;;;;;;;1.53;0.40;;;;;;;-145.69;100.00;52519.63;5072066;28;20865;-78
2023/01/15 01:45:52;;;;;;;0.47;0.47;;;;;;;-145.69;100.00;52523.59;5072304;28;20203;-79
2023/01/15 01:48:23;;;;;;;0.40;0.40;;;;;;;-145.69;100.00;52505.78;5072545;28;20205;-79
2023/01/15 01:50:50;;;;;;;0.30;0.30;;;;;;;-145.69;100.00;52551.31;5072421;28;20203;-78
2023/01/15 01:53:21;;;;;;;0.60;0.30;;;;;;;-145.69;100.00;52527.56;5072683;28;20198;-78
2023/01/15 01:55:52;;;;;;;0.50;0.40;;;;;;;-145.69;100.00;52507.75;5072086;28;20676;-79
2023/01/15 01:58:21;;;;;;;0.30;0.30;;;;;;;-145.69;100.00;52531.53;5072785;28;20339;-79
2023/01/15 02:00:51;;;;;;;0.53;0.30;;;;;;;-145.69;100.00;52519.63;5072789;28;20233;-78
2023/01/15 02:03:20;;;;;;;0.40;0.40;;;;;;;-145.69;100.00;52543.41;5072591;28;20203;-77
2023/01/15 02:05:52;;;;;;;1.20;0.40;;;;;;;-145.69;100.00;52517.66;5072088;28;20207;-79
2023/01/15 02:08:18;;;;;;;1.53;0.40;;;;;;;-145.69;100.00;52517.66;5072658;28;20203;-78
2023/01/15 02:10:53;;;;;;;0.30;0.30;;;;;;;-145.69;100.00;52511.72;5071801;28;20198;-79
2023/01/15 02:13:25;;;;;;;0.30;0.30;;;;;;;-145.69;100.00;52495.88;5072176;28;20201;-79
2023/01/15 02:16:00;;;;;;;0.30;0.30;;;;;;;-145.69;100.00;52551.31;5072211;28;20231;-79
2023/01/15 02:18:31;;;;;;;0.33;0.33;;;;;;;-145.69;100.00;52515.69;5075321;28;20199;-80
2023/01/15 02:21:01;;;;;;;0.50;0.50;;;;;;;-145.69;100.00;52523.59;5075821;28;20223;-79
2023/01/15 02:23:54;;;;;;;1.23;0.50;;;;;;;-145.69;100.00;52501.81;5076376;28;20194;-80
2023/01/15 02:26:39;;;;;;;1.33;0.40;;;;;;;-145.69;100.00;52493.91;5075835;28;20214;-78
2023/01/15 02:29:13;;;;;;;0.30;0.30;;;;;;;-145.69;100.00;52507.75;5055445;28;20674;-77
2023/01/15 02:31:43;;;;;;;0.40;0.40;;;;;;;-145.69;100.00;52531.53;5070455;28;20287;-78
2023/01/15 02:34:13;;;;;;;0.40;0.40;;;;;;;-145.69;100.00;52507.75;5075886;28;20203;-78
2023/01/15 02:36:44;;;;;;;0.53;0.50;;;;;;;-145.69;100.00;52503.81;5075676;28;20191;-77
2023/01/15 02:39:15;;;;;;;0.33;0.33;;;;;;;-145.69;100.00;52495.88;5075610;28;20198;-78
2023/01/15 02:41:48;;;;;;;0.50;0.50;;;;;;;-145.69;100.00;52505.78;5075680;28;20207;-74
2023/01/15 02:44:19;;;;;;;0.40;0.40;;;;;;;-145.69;100.00;52529.53;5075612;28;20253;-78
2023/01/15 02:46:47;;;;;;;0.50;0.50;;;;;;;-145.69;100.00;52531.53;5075196;28;20203;-79
2023/01/15 02:49:22;;;;;;;0.67;0.40;;;;;;;-145.69;100.00;52491.91;5075535;28;20199;-81
2023/01/15 02:51:54;;;;;;;0.50;0.50;;;;;;;-145.69;100.00;52507.75;5075401;28;20199;-77
2023/01/15 02:54:24;;;;;;;0.80;0.40;;;;;;;-145.69;100.00;52511.72;5075048;28;20191;-79
2023/01/15 02:56:53;;;;;;;0.50;0.50;;;;;;;-145.69;100.00;52517.66;5074883;28;20213;-78
2023/01/15 02:59:23;;;;;;;0.37;0.37;;;;;;;-145.69;100.00;52507.75;5075274;28;20194;-78
2023/01/15 03:01:56;;;;;;;0.50;0.40;;;;;;;-145.69;100.00;52535.47;5075323;28;20654;-79
2023/01/15 03:04:31;;;;;;;0.53;0.47;;;;;;;-145.69;100.00;52523.59;5075334;28;20199;-80
2023/01/15 03:07:05;;;;;;;0.40;0.40;;;;;;;-145.69;100.00;52519.63;5072307;28;20197;-80
2023/01/15 03:09:32;;;;;;;0.50;0.30;;;;;;;-145.69;100.00;52511.72;5075161;28;20629;-78
2023/01/15 03:12:12;;;;;;;1.53;0.30;;;;;;;-145.69;100.00;52551.31;5074857;28;20205;-79
2023/01/15 03:14:46;;;;;;;0.30;0.30;;;;;;;-145.69;100.00;52511.72;5075265;28;20205;-76
2023/01/15 03:17:18;;;;;;;0.40;0.40;;;;;;;-145.69;100.00;52543.41;5075036;28;20672;-79
2023/01/15 03:19:54;;;;;;;1.33;0.50;;;;;;;-145.69;100.00;52517.66;5074767;28;20194;-79
2023/01/15 03:22:25;;;;;;;0.67;0.50;;;;;;;-145.69;100.00;52529.53;5074642;28;20198;-80
2023/01/15 03:24:55;;;;;;;0.30;0.30;;;;;;;-145.69;100.00;52495.88;5074824;28;20203;-79
2023/01/15 03:27:23;;;;;;;0.40;0.40;;;;;;;-145.69;100.00;52515.69;5074767;28;20199;-79
2023/01/15 03:29:53;;;;;;;0.47;0.30;;;;;;;-145.69;100.00;52507.75;5074546;28;20195;-79
2023/01/15 03:32:22;;;;;;;0.37;0.37;;;;;;;-145.69;100.00;52555.28;5074491;28;20203;-79
2023/01/15 03:34:54;;;;;;;0.30;0.30;;;;;;;-145.69;100.00;52511.72;5074276;28;20205;-79
2023/01/15 03:37:26;;;;;;;0.73;0.50;;;;;;;-145.69;100.00;52525.59;5074957;28;20207;-80
2023/01/15 03:39:53;;;;;;;1.00;0.40;;;;;;;-145.69;100.00;52495.88;5074317;28;20210;-79
2023/01/15 03:42:43;;;;;;;0.70;0.40;;;;;;;-145.69;100.00;52547.38;5074164;28;20291;-79
2023/01/15 03:45:15;;;;;;;0.30;0.30;;;;;;;-145.69;100.00;52555.28;5074411;28;20269;-79
2023/01/15 03:47:54;;;;;;;0.30;0.30;;;;;;;-145.69;100.00;52511.72;5074899;28;20206;-79
2023/01/15 03:50:27;;;;;;;0.70;0.60;;;;;;;-145.69;100.00;52535.47;5074416;28;20210;-78
2023/01/15 03:53:04;;;;;;;0.40;0.40;;;;;;;-145.69;100.00;52513.69;5074421;28;20202;-79
2023/01/15 03:55:39;;;;;;;0.53;0.40;;;;;;;-145.69;100.00;52501.81;5074383;28;20205;-79
2023/01/15 03:58:13;;;;;;;0.50;0.50;;;;;;;-145.69;100.00;52519.63;5074313;28;20194;-79
2023/01/15 04:00:44;;;;;;;0.23;0.23;;;;;;;-145.69;100.00;52533.50;5073975;28;20230;-79
2023/01/15 04:03:12;;;;;;;0.43;0.43;;;;;;;-145.69;100.00;52529.53;5074302;28;20210;-79
2023/01/15 04:05:40;;;;;;;0.43;0.43;;;;;;;-145.69;100.00;52555.28;5073784;28;20672;-78
2023/01/15 04:08:07;;;;;;;0.40;0.40;;;;;;;-145.69;100.00;52545.38;5073340;28;20900;-79
2023/01/15 04:10:34;;;;;;;0.30;0.30;;;;;;;-145.69;100.00;52569.16;5072937;28;20445;-78
2023/01/15 04:13:00;;;;;;;0.50;0.50;;;;;;;-145.69;100.00;52515.69;5074148;28;20557;-80
2023/01/15 04:15:28;;;;;;;0.30;0.30;;;;;;;-145.69;100.00;52527.56;5073840;28;20202;-79
2023/01/15 04:17:54;;;;;;;0.73;0.47;;;;;;;-145.69;100.00;52511.72;5073663;28;20203;-80
2023/01/15 04:20:21;;;;;;;1.17;0.40;;;;;;;-145.69;100.00;52519.63;5073786;28;20229;-80
2023/01/15 04:22:49;;;;;;;0.50;0.40;;;;;;;-145.69;100.00;52557.28;5073764;28;20198;-79
2023/01/15 04:25:16;;;;;;;0.40;0.40;;;;;;;-145.69;100.00;52535.47;5073927;28;20198;-80
2023/01/15 04:27:42;;;;;;;0.40;0.40;;;;;;;-145.69;100.00;52543.41;5073588;28;20225;-79
2023/01/15 04:30:10;;;;;;;0.70;0.70;;;;;;;-145.69;100.00;52523.59;5073136;28;20197;-79
2023/01/15 04:32:37;;;;;;;0.60;0.43;;;;;;;-145.69;100.00;52519.63;5073608;28;20199;-79
2023/01/15 04:35:04;;;;;;;0.40;0.40;;;;;;;-145.69;100.00;52513.69;5073007;28;20202;-78
2023/01/15 04:37:31;;;;;;;0.33;0.30;;;;;;;-145.69;100.00;52517.66;5073225;28;20645;-79
2023/01/15 04:39:57;;;;;;;0.40;0.40;;;;;;;-145.69;100.00;52511.72;5073016;28;20199;-79
2023/01/15 04:45:09;;;;;;;0.87;0.50;;;;;;;-145.69;100.00;52501.81;5073121;28;20237;-79
2023/01/15 04:47:35;;;;;;;3.37;0.60;;;;;;;-145.69;100.00;52527.56;5073014;28;20195;-79
2023/01/15 04:50:05;;;;;;;0.97;0.80;;;;;;;-145.69;100.00;52511.72;5073501;28;20206;-80
2023/01/15 04:52:31;;;;;;;2.50;1.07;;;;;;;-145.69;100.00;52553.31;5073137;28;20246;-80
2023/01/15 04:54:58;;;;;;;1.27;0.90;;;;;;;-145.69;100.00;52511.72;5072494;28;20197;-79
2023/01/15 04:57:24;;;;;;;0.40;0.40;;;;;;;-145.69;100.00;52519.63;5072938;28;20191;-78
2023/01/15 04:59:51;;;;;;;2.33;0.40;;;;;;;-145.69;100.00;52511.72;5073069;28;20202;-79
2023/01/15 05:02:17;;;;;;;0.50;0.50;;;;;;;-145.69;100.00;52535.47;5072437;28;20234;-80
2023/01/15 05:04:43;;;;;;;0.77;0.77;;;;;;;-145.69;100.00;52545.38;5073160;28;20194;-78
2023/01/15 05:07:11;;;;;;;2.07;1.07;;;;;;;-145.69;100.00;52535.47;5072594;28;20677;-80
2023/01/15 05:09:41;;;;;;;1.67;1.07;;;;;;;-145.69;100.00;52547.38;5073013;28;20202;-79
2023/01/15 05:12:08;;;;;;;2.10;1.13;;;;;;;-145.69;100.00;52531.53;5069276;28;20287;-78
2023/01/15 05:14:34;;;;;;;0.47;0.47;;;;;;;-145.69;100.00;52529.53;5073127;28;20198;-79
2023/01/15 05:17:01;;;;;;;3.53;1.40;;;;;;;-145.69;100.00;52561.22;5073159;28;20211;-80
2023/01/15 05:19:27;;;;;;;2.23;0.87;;;;;;;-145.69;100.00;52509.75;5072551;28;20194;-79
2023/01/15 05:21:54;;;;;;;1.63;0.70;;;;;;;-145.69;100.00;52527.56;5072602;28;20234;-79
2023/01/15 05:24:22;;;;;;;1.80;1.20;;;;;;;-145.69;100.00;52529.53;5072886;28;20205;-79
2023/01/15 05:26:49;;;;;;;0.60;0.60;;;;;;;-145.69;100.00;52533.50;5072162;28;20195;-79
2023/01/15 05:29:15;;;;;;;1.30;0.90;;;;;;;-145.69;100.00;52555.28;5072446;28;20558;-79
2023/01/15 05:31:43;;;;;;;1.05;0.90;;;;;;;-145.69;100.00;52541.44;5072424;28;20449;-79
2023/01/15 05:34:11;;;;;;;0.43;0.33;;;;;;;-145.69;100.00;52484.00;5075342;28;20203;-78
2023/01/15 05:36:37;;;;;;;0.30;0.30;;;;;;;-145.69;100.00;52525.59;5077629;28;20206;-78
2023/01/15 05:39:04;;;;;;;0.40;0.40;;;;;;;-145.69;100.00;52521.63;5075366;28;20195;-78
2023/01/15 05:41:51;;;;;;;0.93;0.40;;;;;;;-145.69;100.00;52513.69;5072549;28;20312;-78
2023/01/15 05:44:22;;;;;;;0.40;0.40;;;;;;;-145.69;100.00;52525.59;5072617;28;20240;-79
2023/01/15 05:46:50;;;;;;;2.67;0.40;;;;;;;-145.69;100.00;52545.38;5072816;28;20194;-78
2023/01/15 05:49:18;;;;;;;0.40;0.30;;;;;;;-145.69;100.00;52491.91;5072613;28;20242;-80
2023/01/15 05:51:49;;;;;;;0.40;0.40;;;;;;;-145.69;100.00;52539.44;5073288;28;20199;-79
2023/01/15 05:54:17;;;;;;;0.30;0.30;;;;;;;-145.69;100.00;52531.53;5076109;28;20278;-79
2023/01/15 05:56:46;;;;;;;0.53;0.47;;;;;;;-145.69;100.00;52523.59;5076122;28;20220;-79
2023/01/15 05:59:14;;;;;;;0.33;0.33;;;;;;;-145.69;100.00;52539.44;5076341;28;20716;-79
2023/01/15 06:01:41;;;;;;;0.37;0.37;;;;;;;-145.69;100.00;52529.53;5076419;28;20226;-79
2023/01/15 06:04:08;;;;;;;0.33;0.33;;;;;;;-145.69;100.00;52531.53;5075777;28;20206;-79
2023/01/15 06:06:35;;;;;;;1.80;0.50;;;;;;;-145.69;100.00;52519.63;5075935;28;20199;-79
2023/01/15 06:09:02;;;;;;;0.83;0.60;;;;;;;-145.69;100.00;52531.53;5076057;28;20252;-80
2023/01/15 06:11:29;;;;;;;0.40;0.40;;;;;;;-145.69;100.00;52503.81;5076509;28;20210;-79
2023/01/15 06:13:57;;;;;;;0.30;0.30;;;;;;;-145.69;100.00;52549.34;5075738;28;20206;-79
2023/01/15 06:16:24;;;;;;;0.40;0.40;;;;;;;-145.69;100.00;52513.69;5076386;28;20298;-79
2023/01/15 06:18:51;;;;;;;0.40;0.40;;;;;;;-145.69;100.00;52503.81;5075969;28;20202;-79
2023/01/15 06:21:20;;;;;;;0.40;0.40;;;;;;;-145.69;100.00;52551.31;5075853;28;20227;-79
2023/01/15 06:23:46;;;;;;;0.47;0.47;;;;;;;-145.69;100.00;52545.38;5075590;28;20956;-80
2023/01/15 06:26:17;;;;;;;0.30;0.30;;;;;;;-145.69;100.00;52549.34;5075887;28;20202;-79
2023/01/15 06:28:45;;;;;;;0.50;0.50;;;;;;;-145.69;100.00;52553.31;5076087;28;20203;-80
2023/01/15 06:31:15;;;;;;;0.60;0.40;;;;;;;-145.69;100.00;52547.38;5074936;28;20213;-80
2023/01/15 06:33:42;;;;;;;0.40;0.40;;;;;;;-145.69;100.00;52575.09;5074929;28;20645;-80
2023/01/15 06:36:10;;;;;;;0.50;0.40;;;;;;;-145.69;100.00;52515.69;5075819;28;20779;-78
2023/01/15 06:38:38;;;;;;;3.33;0.40;;;;;;;-145.69;100.00;52555.28;5075943;28;20203;-78
2023/01/15 06:47:19;;;;;;;0.40;0.40;;;;;;;-145.69;100.00;52555.28;5075607;28;20566;-77
2023/01/15 06:49:26;;;;;;;0.50;0.50;;;;;;;-145.69;100.00;52557.28;5075593;28;20304;-77
2023/01/15 06:51:54;;;;;;;0.40;0.40;;;;;;;-145.69;100.00;52521.63;5075452;28;20199;-77
2023/01/15 06:54:20;;;;;;;0.77;0.43;;;;;;;-145.69;100.00;52545.38;5075328;28;20553;-77
2023/01/15 06:56:48;;;;;;;0.40;0.40;;;;;;;-145.69;100.00;52545.38;5075180;28;20195;-76
2023/01/15 06:59:15;;;;;;;0.40;0.40;;;;;;;-145.69;100.00;52515.69;5075478;28;20199;-76
2023/01/15 07:01:43;;;;;;;0.43;0.43;;;;;;;-145.69;100.00;52559.25;5075231;28;20224;-78
2023/01/15 07:04:09;;;;;;;0.43;0.40;;;;;;;-145.69;100.00;52539.44;5074670;28;20191;-77
2023/01/15 07:06:35;;;;;;;1.17;0.60;;;;;;;-145.69;100.00;52565.19;5074805;28;20195;-75
2023/01/15 07:09:02;;;;;;;0.50;0.50;;;;;;;-145.69;100.00;52567.16;5074951;28;20199;-77
2023/01/15 07:11:31;;;;;;;0.40;0.40;;;;;;;-145.69;100.00;52567.16;5075025;28;20210;-77
2023/01/15 07:14:05;;;;;;;0.80;0.40;;;;;;;-145.69;100.00;52547.38;5075345;28;20607;-77
2023/01/15 07:16:32;;;;;;;0.40;0.30;;;;;;;-145.69;100.00;52505.78;5075025;28;20229;-76
2023/01/15 07:19:00;;;;;;;1.67;0.60;;;;;;;-145.69;100.00;52549.34;5074838;28;20199;-77
2023/01/15 07:21:27;;;;;;;0.70;0.50;;;;;;;-145.69;100.00;52551.31;5074006;28;20250;-77
2023/01/15 07:23:54;;;;;;;0.50;0.50;;;;;;;-145.69;100.00;52527.56;5074745;28;20302;-76
2023/01/15 07:26:21;;;;;;;2.17;1.43;;;;;;;-145.69;100.00;52539.44;5074515;28;20198;-77
2023/01/15 07:28:47;;;;;;;1.23;0.90;;;;;;;-145.69;100.00;52547.38;5074816;28;20671;-77
2023/01/15 07:31:13;;;;;;;4.50;1.40;;;;;;;-145.69;100.00;52559.25;5074453;28;20218;-76
2023/01/15 07:33:42;;;;;;;1.37;0.80;;;;;;;-145.69;100.00;52531.53;5074552;28;20202;-75
2023/01/15 07:36:10;;;;;;;5.60;1.93;;;;;;;-145.69;100.00;52535.47;5074560;28;20203;-76
2023/01/15 07:38:37;;;;;;;0.80;0.40;;;;;;;-145.69;100.00;52575.09;5074475;28;20203;-78
2023/01/15 07:52:00;;;;;;;0.60;0.60;;;;;;;-145.69;100.00;52602.81;5074585;28;20243;-77
2023/01/15 07:54:28;;;;;;;0.50;0.50;;;;;;;-145.69;100.00;52602.81;5074189;28;20202;-77
2023/01/15 07:56:56;;;;;;;0.53;0.53;;;;;;;-145.69;100.00;52586.97;5073806;28;20649;-77
2023/01/15 07:59:23;;;;;;;0.60;0.60;;;;;;;-145.69;100.00;52630.53;5074185;28;20201;-77
2023/01/15 08:01:53;;;;;;;0.70;0.70;;;;;;;-145.69;100.00;52577.06;5074163;28;20313;-77
2023/01/15 08:04:19;;;;;;;1.47;1.00;;;;;;;-145.69;100.00;52594.91;5074038;28;20205;-78
2023/01/15 08:06:46;;;;;;;0.60;0.60;;;;;;;-145.69;100.00;52579.06;5073931;28;20202;-77
2023/01/15 08:09:14;;;;;;;0.60;0.60;;;;;;;-145.69;100.00;52634.50;5073481;28;20191;-78
2023/01/15 08:17:08;;;;;;;0.80;0.80;;;;;;;-145.69;100.00;52610.75;5074467;28;20554;-77
2023/01/15 08:19:37;;;;;;;0.60;0.60;;;;;;;-145.69;100.00;52590.94;5073427;28;20218;-78
2023/01/15 08:22:03;;;;;;;0.90;0.67;;;;;;;-145.69;100.00;52594.91;5073791;28;20329;-77
2023/01/15 08:24:31;;;;;;;0.90;0.60;;;;;;;-145.69;100.00;52602.81;5073466;28;20207;-77
2023/01/15 08:26:58;;;;;;;0.50;0.50;;;;;;;-145.69;100.00;52622.63;5073736;28;20214;-77
2023/01/15 08:29:24;;;;;;;0.53;0.53;;;;;;;-145.69;100.00;52630.53;5073595;28;20207;-76
2023/01/15 08:31:50;;;;;;;0.60;0.60;;;;;;;-145.69;100.00;52616.69;5073510;28;20206;-76
2023/01/15 08:34:18;;;;;;;0.60;0.60;;;;;;;-145.69;100.00;52575.09;5072695;28;20191;-77
2023/01/15 08:36:45;;;;;;;4.63;1.90;;;;;;;-145.69;100.00;52620.66;5073141;28;20264;-77
2023/01/15 08:39:11;;;;;;;1.00;0.90;;;;;;;-145.69;100.00;52616.69;5073486;28;20198;-77
2023/01/15 08:41:39;;;;;;;2.77;0.70;;;;;;;-145.69;100.00;52630.53;5073362;28;20312;-77
2023/01/15 08:44:05;;;;;;;0.60;0.57;;;;;;;-145.69;100.00;52610.75;5073232;28;20234;-77
2023/01/15 08:46:32;;;;;;;1.07;0.70;;;;;;;-145.69;100.00;52626.59;5072740;28;20654;-77
2023/01/15 08:48:59;;;;;;;0.60;0.60;;;;;;;-145.69;100.00;52575.09;5073384;28;20199;-76
2023/01/15 08:51:26;;;;;;;0.60;0.60;;;;;;;-145.69;100.00;52606.78;5072541;28;20206;-77
2023/01/15 08:53:52;;;;;;;1.70;0.50;;;;;;;-145.69;100.00;52604.81;5073420;28;20209;-77
2023/01/15 08:56:19;;;;;;;0.60;0.60;;;;;;;-145.69;100.00;52590.94;5072449;28;20598;-77
2023/01/15 08:58:48;;;;;;;1.60;1.30;;;;;;;-145.69;100.00;52628.56;5073253;28;20206;-77
2023/01/15 09:01:14;;;;;;;1.13;1.00;;;;;;;-145.69;100.00;52604.81;5073642;28;20665;-76
2023/01/15 09:03:41;;;;;;;3.47;1.73;;;;;;;-145.69;100.00;52598.84;5072897;28;20293;-76
2023/01/15 09:06:12;;;;;;;1.20;0.90;;;;;;;-145.69;100.00;52624.59;5074011;28;20201;-77
2023/01/15 09:08:39;;;;;;;2.43;1.40;;;;;;;-145.69;100.00;52592.91;5072671;28;20191;-77
2023/01/15 09:11:08;;;;;;;1.20;1.10;;;;;;;-145.69;100.00;52594.91;5074814;28;20203;-77
2023/01/15 09:13:36;;;;;;;2.23;1.80;;;;;;;-145.69;100.00;52600.84;5073534;28;20202;-77
2023/01/15 09:16:08;;;;;;;2.00;1.30;;;;;;;-145.69;100.00;52590.94;5072962;28;20217;-77
2023/01/15 09:18:36;;;;;;;1.57;1.27;;;;;;;-145.69;100.00;52590.94;5072493;28;20203;-77
2023/01/15 09:21:03;;;;;;;1.47;1.30;;;;;;;-145.69;100.00;52636.50;5072893;28;20684;-77
2023/01/15 09:23:30;;;;;;;1.40;1.30;;;;;;;-145.69;100.00;52602.81;5072976;28;20231;-77
2023/01/15 09:25:59;;;;;;;1.10;1.00;;;;;;;-145.69;100.00;52586.97;5072224;28;20187;-77
2023/01/15 09:28:27;;;;;;;0.73;0.73;;;;;;;-145.69;100.00;52590.94;5072669;28;20194;-76
2023/01/15 09:30:53;;;;;;;0.60;0.60;;;;;;;-145.69;100.00;52626.59;5071851;28;20206;-77
2023/01/15 09:33:22;;;;;;;0.70;0.70;;;;;;;-145.69;100.00;52606.78;5052744;28;20199;-76
2023/01/15 09:35:49;;;;;;;0.80;0.80;;;;;;;-145.69;100.00;52590.94;5052374;28;20199;-76
2023/01/15 09:38:17;;;;;;;2.20;1.60;;;;;;;-145.69;100.00;52610.75;5052836;28;20214;-76
2023/01/15 09:40:48;;;;;;;1.30;1.07;;;;;;;-145.69;100.00;52583.00;5052765;28;20203;-76
2023/01/15 09:43:30;;;;;;;1.37;1.00;;;;;;;-145.69;100.00;52640.44;5055485;28;20636;-76
2023/01/15 09:46:01;;;;;;;2.40;1.47;;;;;;;-145.69;100.00;52590.94;5072838;28;20260;-76
2023/01/15 09:48:39;;;;;;;2.20;1.37;;;;;;;-145.69;100.00;52630.53;5073058;28;20294;-77
2023/01/15 09:51:18;;;;;;;0.97;0.70;;;;;;;-145.69;100.00;52606.78;5072827;28;20201;-77
2023/01/15 09:54:04;;;;;;;11.57;3.70;;;;;;;-145.69;100.00;52622.63;5072714;28;20237;-76
2023/01/15 09:56:32;;;;;;;4.97;2.43;;;;;;;-145.69;100.00;52632.53;5072339;28;20194;-76
2023/01/15 09:59:01;;;;;;;6.57;2.07;;;;;;;-145.69;100.00;52628.56;5072346;28;20229;-77
2023/01/15 10:01:30;;;;;;;2.93;1.63;;;;;;;-145.69;100.00;52630.53;5072665;28;20194;-75
2023/01/15 10:04:06;;;;;;;5.90;2.27;;;;;;;-145.69;100.00;52622.63;5072217;28;20542;-76
2023/01/15 10:06:39;;;;;;;1.73;1.20;;;;;;;-145.69;100.00;52622.63;5072211;28;20202;-76
2023/01/15 10:09:14;;;;;;;2.23;1.30;;;;;;;-145.69;100.00;52610.75;5052135;28;20203;-76
2023/01/15 10:14:38;;;;;;;0.70;0.70;;;;;;;-145.69;100.00;52592.91;5052065;28;20657;-76
2023/01/15 10:17:13;;;;;;;0.70;0.70;;;;;;;-145.69;100.00;52606.78;5052559;28;20206;-76
2023/01/15 10:19:41;;;;;;;0.60;0.60;;;;;;;-145.69;100.00;52630.53;5063090;28;20199;-76
2023/01/15 10:22:15;;;;;;;0.80;0.80;;;;;;;-145.69;100.00;52586.97;5072022;28;20466;-77
2023/01/15 10:24:49;;;;;;;1.03;0.97;;;;;;;-145.69;100.00;52598.84;5072343;28;20209;-76
2023/01/15 10:27:21;;;;;;;1.03;0.93;;;;;;;-145.69;100.00;52598.84;5071290;28;20199;-76
2023/01/15 10:29:53;;;;;;;1.20;0.90;;;;;;;-145.69;100.00;52658.28;5072638;28;20206;-77
2023/01/15 10:32:29;;;;;;;0.60;0.60;;;;;;;-145.69;100.00;52592.91;5071298;28;20684;-77
2023/01/15 10:35:11;;;;;;;0.50;0.50;;;;;;;-145.69;100.00;52588.97;5071620;28;20190;-76
2023/01/15 10:37:43;;;;;;;2.87;0.97;;;;;;;-145.69;100.00;52630.53;5072330;28;20653;-77
2023/01/15 10:40:27;;;;;;;1.37;1.27;;;;;;;-145.69;100.00;52650.34;5075709;28;20190;-77
2023/01/15 10:43:01;;;;;;;1.50;1.10;;;;;;;-145.69;100.00;52650.34;5075077;28;20229;-76
2023/01/15 10:45:32;;;;;;;1.13;0.90;;;;;;;-145.69;100.00;52610.75;5075730;28;20221;-76
2023/01/15 10:48:05;;;;;;;0.50;0.50;;;;;;;-145.69;100.00;52632.53;5075890;28;20636;-76
2023/01/15 10:50:35;;;;;;;0.50;0.50;;;;;;;-145.69;100.00;52648.38;5075926;28;20195;-76
2023/01/15 10:53:08;;;;;;;1.23;1.13;;;;;;;-145.69;100.00;52656.28;5075315;28;20195;-76
2023/01/15 10:55:38;;;;;;;0.63;0.63;;;;;;;-145.69;100.00;52600.84;5075372;28;20197;-76
2023/01/15 10:58:13;;;;;;;1.00;0.90;;;;;;;-145.69;100.00;52614.72;5074938;28;20293;-75
2023/01/15 11:00:41;;;;;;;2.33;1.70;;;;;;;-145.69;100.00;52618.66;5075083;28;20202;-75
2023/01/15 11:03:13;;;;;;;1.27;1.17;;;;;;;-145.69;100.00;52640.44;5075193;28;20578;-75
2023/01/15 11:05:44;;;;;;;0.93;0.80;;;;;;;-145.69;100.00;52668.19;5075191;28;20198;-76
2023/01/15 11:08:20;;;;;;;1.13;0.80;;;;;;;-145.69;100.00;52614.72;5074699;28;20199;-76
2023/01/15 11:10:46;;;;;;;1.70;1.30;;;;;;;-145.69;100.00;52630.53;5074723;28;20203;-75
2023/01/15 11:21:49;;;;;;;1.77;1.20;;;;;;;-145.69;100.00;52622.63;5074971;28;20252;-76
2023/01/15 11:24:17;;;;;;;1.30;1.17;;;;;;;-145.69;100.00;52588.97;5071561;28;20325;-76
2023/01/15 11:26:47;;;;;;;1.33;0.87;;;;;;;-145.69;100.00;52610.75;5074718;28;20191;-76
2023/01/15 11:29:20;;;;;;;1.30;0.80;;;;;;;-145.69;100.00;52618.66;5074979;28;20202;-76
2023/01/15 11:31:46;;;;;;;7.63;3.30;;;;;;;-145.69;100.00;52622.63;5074907;28;20211;-75
2023/01/15 11:34:20;;;;;;;2.90;2.10;;;;;;;-145.69;100.00;52634.50;5074992;28;20214;-76
2023/01/15 11:36:48;;;;;;;6.70;3.37;;;;;;;-145.69;100.00;52646.41;5074712;28;20195;-74
2023/01/15 11:39:25;;;;;;;4.57;2.27;;;;;;;-145.69;100.00;52634.50;5074543;28;20220;-75
2023/01/15 11:53:08;;;;;;;1.80;1.70;;;;;;;-145.69;100.00;52606.78;5054290;28;20245;-76
2023/01/15 11:55:35;;;;;;;0.60;0.60;;;;;;;-145.69;100.00;52616.69;5065622;28;20210;-77
2023/01/15 11:58:02;;;;;;;0.83;0.70;;;;;;;-145.69;100.00;52640.44;5073885;28;20202;-76
2023/01/15 12:00:32;;;;;;;0.50;0.50;;;;;;;-145.69;100.00;52624.59;5073973;28;20203;-76
2023/01/15 12:03:04;;;;;;;1.27;1.03;;;;;;;-145.69;100.00;52634.50;5073820;28;20693;-77
2023/01/15 12:05:34;;;;;;;2.73;0.60;;;;;;;-145.69;100.00;52644.41;5073620;28;20194;-76
2023/01/15 12:08:03;;;;;;;1.77;1.30;;;;;;;-145.69;100.00;52658.28;5073741;28;20553;-76
2023/01/15 12:13:29;;;;;;;1.77;1.20;;;;;;;-145.69;100.00;52652.34;5064761;28;20303;-76
2023/01/15 12:16:05;;;;;;;1.10;1.00;;;;;;;-145.69;100.00;52622.63;5074066;28;20202;-76